sensor_id;sensor_type;location;lat;lon;timestamp;pressure;altitude;pressure_sealevel;temperature;humidity
10658;BME280;5377;43.276;26.930;2023-07-29T00:00:41;98849.25;;;18.77;100.00
10658;BME280;5377;43.276;26.930;2023-07-29T00:03:08;98825.72;;;18.51;100.00
10658;BME280;5377;43.276;26.930;2023-07-29T00:05:34;98845.00;;;18.59;100.00
10658;BME280;5377;43.276;26.930;2023-07-29T00:08:01;98842.28;;;18.54;100.00
10658;BME280;5377;43.276;26.930;2023-07-29T00:10:31;98749.25;;;18.06;100.00
10658;BME280;5377;43.276;26.930;2023-07-29T00:12:58;98835.63;;;18.72;98.73
10658;BME280;5377;43.276;26.930;2023-07-29T00:15:25;98832.66;;;18.74;100.00
10658;BME280;5377;43.276;26.930;2023-07-29T00:17:51;98839.13;;;18.67;100.00
10658;BME280;5377;43.276;26.930;2023-07-29T00:20:18;98839.56;;;18.54;100.00
10658;BME280;5377;43.276;26.930;2023-07-29T00:22:45;98834.66;;;18.51;100.00
10658;BME280;5377;43.276;26.930;2023-07-29T00:25:12;98825.72;;;18.51;100.00
10658;BME280;5377;43.276;26.930;2023-07-29T00:27:40;98841.13;;;18.45;100.00
10658;BME280;5377;43.276;26.930;2023-07-29T00:30:07;98843.00;;;18.39;100.00
10658;BME280;5377;43.276;26.930;2023-07-29T00:32:35;98830.94;;;18.25;100.00
10658;BME280;5377;43.276;26.930;2023-07-29T00:35:02;98818.50;;;18.29;100.00
10658;BME280;5377;43.276;26.930;2023-07-29T00:37:30;98831.06;;;18.41;100.00
10658;BME280;5377;43.276;26.930;2023-07-29T00:39:57;98826.41;;;18.36;100.00
10658;BME280;5377;43.276;26.930;2023-07-29T00:42:23;98829.59;;;18.28;100.00
10658;BME280;5377;43.276;26.930;2023-07-29T00:44:52;98819.28;;;18.25;100.00
10658;BME280;5377;43.276;26.930;2023-07-29T00:47:19;98823.88;;;18.24;100.00
10658;BME280;5377;43.276;26.930;2023-07-29T00:49:47;98816.56;;;18.25;100.00
10658;BME280;5377;43.276;26.930;2023-07-29T00:52:14;98817.88;;;18.17;100.00
10658;BME280;5377;43.276;26.930;2023-07-29T00:54:42;98813.81;;;18.20;100.00
10658;BME280;5377;43.276;26.930;2023-07-29T00:57:10;98811.97;;;18.25;100.00
10658;BME280;5377;43.276;26.930;2023-07-29T00:59:39;98817.06;;;18.17;100.00
10658;BME280;5377;43.276;26.930;2023-07-29T01:02:08;98826.34;;;18.26;100.00
10658;BME280;5377;43.276;26.930;2023-07-29T01:04:35;98821.47;;;18.28;100.00
10658;BME280;5377;43.276;26.930;2023-07-29T01:07:11;98819.81;;;18.22;100.00
10658;BME280;5377;43.276;26.930;2023-07-29T01:09:55;98822.19;;;18.13;100.00
10658;BME280;5377;43.276;26.930;2023-07-29T01:12:35;98821.63;;;18.11;100.00
10658;BME280;5377;43.276;26.930;2023-07-29T01:15:11;98815.91;;;18.07;100.00
10658;BME280;5377;43.276;26.930;2023-07-29T01:17:43;98819.16;;;18.04;100.00
10658;BME280;5377;43.276;26.930;2023-07-29T01:20:14;98815.84;;;18.02;100.00
10658;BME280;5377;43.276;26.930;2023-07-29T01:22:43;98807.91;;;17.91;100.00
10658;BME280;5377;43.276;26.930;2023-07-29T01:25:11;98820.66;;;17.95;100.00
10658;BME280;5377;43.276;26.930;2023-07-29T01:27:38;98828.16;;;17.83;100.00
10658;BME280;5377;43.276;26.930;2023-07-29T01:30:06;98823.56;;;17.84;100.00
10658;BME280;5377;43.276;26.930;2023-07-29T01:32:39;98813.84;;;17.88;100.00
10658;BME280;5377;43.276;26.930;2023-07-29T01:35:15;98814.31;;;17.80;100.00
10658;BME280;5377;43.276;26.930;2023-07-29T01:37:49;98814.66;;;17.88;100.00
10658;BME280;5377;43.276;26.930;2023-07-29T01:40:19;98811.97;;;17.93;100.00
10658;BME280;5377;43.276;26.930;2023-07-29T01:42:47;98810.06;;;17.89;100.00
10658;BME280;5377;43.276;26.930;2023-07-29T01:45:15;98807.13;;;17.95;100.00
10658;BME280;5377;43.276;26.930;2023-07-29T01:47:41;98814.13;;;17.91;100.00
10658;BME280;5377;43.276;26.930;2023-07-29T01:50:09;98814.19;;;17.96;100.00
10658;BME280;5377;43.276;26.930;2023-07-29T01:52:36;98814.13;;;17.91;100.00
10658;BME280;5377;43.276;26.930;2023-07-29T01:55:03;98803.22;;;17.81;100.00
10658;BME280;5377;43.276;26.930;2023-07-29T01:57:31;98821.94;;;17.83;100.00
10658;BME280;5377;43.276;26.930;2023-07-29T01:59:58;98818.41;;;17.82;100.00
10658;BME280;5377;43.276;26.930;2023-07-29T02:02:25;98804.38;;;17.90;100.00
10658;BME280;5377;43.276;26.930;2023-07-29T02:04:52;98803.78;;;17.83;100.00
10658;BME280;5377;43.276;26.930;2023-07-29T02:07:21;98801.53;;;17.75;100.00
10658;BME280;5377;43.276;26.930;2023-07-29T02:09:47;98816.50;;;17.83;100.00
10658;BME280;5377;43.276;26.930;2023-07-29T02:12:14;98810.22;;;17.77;100.00
10658;BME280;5377;43.276;26.930;2023-07-29T02:14:42;98816.16;;;17.74;100.00
10658;BME280;5377;43.276;26.930;2023-07-29T02:17:09;98807.78;;;17.75;100.00
10658;BME280;5377;43.276;26.930;2023-07-29T02:19:36;98802.66;;;17.79;100.00
10658;BME280;5377;43.276;26.930;2023-07-29T02:22:03;98811.34;;;17.81;100.00
10658;BME280;5377;43.276;26.930;2023-07-29T02:24:30;98819.47;;;17.81;100.00
10658;BME280;5377;43.276;26.930;2023-07-29T02:26:57;98803.81;;;17.88;100.00
10658;BME280;5377;43.276;26.930;2023-07-29T02:29:24;98804.28;;;17.80;100.00
10658;BME280;5377;43.276;26.930;2023-07-29T02:31:52;98812.41;;;17.80;100.00
10658;BME280;5377;43.276;26.930;2023-07-29T02:34:19;98817.25;;;17.73;100.00
10658;BME280;5377;43.276;26.930;2023-07-29T02:36:46;98815.69;;;17.82;100.00
10658;BME280;5377;43.276;26.930;2023-07-29T02:39:13;98811.91;;;17.83;100.00
10658;BME280;5377;43.276;26.930;2023-07-29T02:41:40;98811.00;;;17.72;100.00
10658;BME280;5377;43.276;26.930;2023-07-29T02:44:06;98824.94;;;17.86;100.00
10658;BME280;5377;43.276;26.930;2023-07-29T02:46:33;98817.59;;;17.82;100.00
10658;BME280;5377;43.276;26.930;2023-07-29T02:49:03;98828.72;;;17.85;100.00
10658;BME280;5377;43.276;26.930;2023-07-29T02:51:29;98828.72;;;17.85;100.00
10658;BME280;5377;43.276;26.930;2023-07-29T02:53:56;98819.72;;;17.80;100.00
10658;BME280;5377;43.276;26.930;2023-07-29T02:56:23;98800.44;;;17.71;100.00
10658;BME280;5377;43.276;26.930;2023-07-29T02:58:50;98829.22;;;17.82;100.00
10658;BME280;5377;43.276;26.930;2023-07-29T03:01:17;98792.63;;;17.53;100.00
10658;BME280;5377;43.276;26.930;2023-07-29T03:03:44;98829.97;;;17.72;100.00
10658;BME280;5377;43.276;26.930;2023-07-29T03:06:14;98836.13;;;17.68;100.00
10658;BME280;5377;43.276;26.930;2023-07-29T03:08:41;98834.97;;;17.64;100.00
10658;BME280;5377;43.276;26.930;2023-07-29T03:11:09;98766.34;;;17.26;100.00
10658;BME280;5377;43.276;26.930;2023-07-29T03:13:37;98831.84;;;17.72;100.00
10658;BME280;5377;43.276;26.930;2023-07-29T03:16:07;98833.28;;;17.80;97.41
10658;BME280;5377;43.276;26.930;2023-07-29T03:18:34;98828.13;;;17.78;100.00
10658;BME280;5377;43.276;26.930;2023-07-29T03:21:02;98834.22;;;17.68;100.00
10658;BME280;5377;43.276;26.930;2023-07-29T03:23:31;98838.59;;;17.69;100.00
10658;BME280;5377;43.276;26.930;2023-07-29T03:25:59;98837.19;;;17.67;100.00
10658;BME280;5377;43.276;26.930;2023-07-29T03:28:27;98847.19;;;17.66;100.00
10658;BME280;5377;43.276;26.930;2023-07-29T03:30:54;98765.59;;;17.04;100.00
10658;BME280;5377;43.276;26.930;2023-07-29T03:33:23;98850.06;;;17.55;100.00
10658;BME280;5377;43.276;26.930;2023-07-29T03:35:50;98840.38;;;17.64;100.00
10658;BME280;5377;43.276;26.930;2023-07-29T03:38:17;98840.94;;;17.66;100.00
10658;BME280;5377;43.276;26.930;2023-07-29T03:40:46;98845.44;;;17.77;100.00
10658;BME280;5377;43.276;26.930;2023-07-29T03:43:12;98847.09;;;17.78;100.00
10658;BME280;5377;43.276;26.930;2023-07-29T03:45:40;98849.09;;;17.93;100.00
10658;BME280;5377;43.276;26.930;2023-07-29T03:48:07;98846.00;;;17.79;100.00
10658;BME280;5377;43.276;26.930;2023-07-29T03:50:34;98845.75;;;17.81;100.00
10658;BME280;5377;43.276;26.930;2023-07-29T03:53:02;98838.44;;;17.81;100.00
10658;BME280;5377;43.276;26.930;2023-07-29T03:55:29;98839.13;;;17.98;100.00
10658;BME280;5377;43.276;26.930;2023-07-29T03:57:58;98831.66;;;18.11;100.00
10658;BME280;5377;43.276;26.930;2023-07-29T04:00:25;98826.56;;;18.19;100.00
10658;BME280;5377;43.276;26.930;2023-07-29T04:02:52;98825.78;;;18.24;100.00
10658;BME280;5377;43.276;26.930;2023-07-29T04:05:19;98832.66;;;18.36;100.00
10658;BME280;5377;43.276;26.930;2023-07-29T04:07:46;98821.97;;;18.20;100.00
10658;BME280;5377;43.276;26.930;2023-07-29T04:10:13;98841.84;;;18.35;100.00
10658;BME280;5377;43.276;26.930;2023-07-29T04:12:40;98835.63;;;18.35;100.00
10658;BME280;5377;43.276;26.930;2023-07-29T04:15:09;98838.44;;;18.50;100.00
10658;BME280;5377;43.276;26.930;2023-07-29T04:17:36;98837.94;;;18.53;100.00
10658;BME280;5377;43.276;26.930;2023-07-29T04:20:03;98833.09;;;18.60;100.00
10658;BME280;5377;43.276;26.930;2023-07-29T04:22:30;98847.06;;;18.79;100.00
10658;BME280;5377;43.276;26.930;2023-07-29T04:24:57;98847.28;;;18.73;100.00
10658;BME280;5377;43.276;26.930;2023-07-29T04:27:24;98836.59;;;18.56;100.00
10658;BME280;5377;43.276;26.930;2023-07-29T04:29:50;98859.19;;;18.66;100.00
10658;BME280;5377;43.276;26.930;2023-07-29T04:32:19;98864.53;;;18.56;100.00
10658;BME280;5377;43.276;26.930;2023-07-29T04:34:46;98860.22;;;18.60;100.00
10658;BME280;5377;43.276;26.930;2023-07-29T04:37:12;98857.28;;;18.67;100.00
10658;BME280;5377;43.276;26.930;2023-07-29T04:39:39;98861.38;;;18.69;100.00
10658;BME280;5377;43.276;26.930;2023-07-29T04:42:06;98860.09;;;18.77;100.00
10658;BME280;5377;43.276;26.930;2023-07-29T04:44:33;98859.38;;;19.02;100.00
10658;BME280;5377;43.276;26.930;2023-07-29T04:47:00;98848.63;;;19.17;100.00
10658;BME280;5377;43.276;26.930;2023-07-29T04:49:28;98831.50;;;19.17;100.00
10658;BME280;5377;43.276;26.930;2023-07-29T04:51:55;98849.00;;;19.46;100.00
10658;BME280;5377;43.276;26.930;2023-07-29T04:54:22;98834.88;;;19.49;100.00
10658;BME280;5377;43.276;26.930;2023-07-29T04:56:48;98841.72;;;19.67;100.00
10658;BME280;5377;43.276;26.930;2023-07-29T04:59:15;98853.19;;;19.84;100.00
10658;BME280;5377;43.276;26.930;2023-07-29T05:01:42;98856.72;;;20.00;100.00
10658;BME280;5377;43.276;26.930;2023-07-29T05:04:09;98862.44;;;20.04;100.00
10658;BME280;5377;43.276;26.930;2023-07-29T05:06:37;98867.63;;;20.25;100.00
10658;BME280;5377;43.276;26.930;2023-07-29T05:09:12;98867.34;;;20.27;100.00
10658;BME280;5377;43.276;26.930;2023-07-29T05:11:39;98865.72;;;20.31;100.00
10658;BME280;5377;43.276;26.930;2023-07-29T05:14:06;98867.31;;;20.07;100.00
10658;BME280;5377;43.276;26.930;2023-07-29T05:16:35;98871.69;;;20.18;100.00
10658;BME280;5377;43.276;26.930;2023-07-29T05:19:01;98860.00;;;20.12;100.00
10658;BME280;5377;43.276;26.930;2023-07-29T05:21:29;98863.00;;;20.16;100.00
10658;BME280;5377;43.276;26.930;2023-07-29T05:23:57;98871.69;;;20.23;100.00
10658;BME280;5377;43.276;26.930;2023-07-29T05:26:24;98838.78;;;20.19;100.00
10658;BME280;5377;43.276;26.930;2023-07-29T05:28:51;98871.41;;;20.30;100.00
10658;BME280;5377;43.276;26.930;2023-07-29T05:31:18;98868.16;;;20.43;100.00
10658;BME280;5377;43.276;26.930;2023-07-29T05:33:45;98867.38;;;20.47;100.00
10658;BME280;5377;43.276;26.930;2023-07-29T05:36:11;98870.88;;;20.63;100.00
10658;BME280;5377;43.276;26.930;2023-07-29T05:38:38;98855.69;;;20.47;100.00
10658;BME280;5377;43.276;26.930;2023-07-29T05:41:06;98870.59;;;20.75;100.00
10658;BME280;5377;43.276;26.930;2023-07-29T05:43:33;98867.84;;;20.80;100.00
10658;BME280;5377;43.276;26.930;2023-07-29T05:46:00;98869.16;;;21.03;100.00
10658;BME280;5377;43.276;26.930;2023-07-29T05:48:27;98806.66;;;20.67;100.00
10658;BME280;5377;43.276;26.930;2023-07-29T05:50:54;98852.56;;;20.94;100.00
10658;BME280;5377;43.276;26.930;2023-07-29T05:53:20;98855.28;;;20.99;100.00
10658;BME280;5377;43.276;26.930;2023-07-29T05:55:48;98877.31;;;21.03;100.00
10658;BME280;5377;43.276;26.930;2023-07-29T05:58:17;98855.56;;;20.98;100.00
10658;BME280;5377;43.276;26.930;2023-07-29T06:00:43;98869.13;;;21.08;100.00
10658;BME280;5377;43.276;26.930;2023-07-29T06:03:10;98869.41;;;21.16;100.00
10658;BME280;5377;43.276;26.930;2023-07-29T06:05:37;98853.88;;;21.12;100.00
10658;BME280;5377;43.276;26.930;2023-07-29T06:08:04;98862.31;;;21.10;100.00
10658;BME280;5377;43.276;26.930;2023-07-29T06:10:30;98866.38;;;21.28;100.00
10658;BME280;5377;43.276;26.930;2023-07-29T06:12:57;98869.03;;;21.43;100.00
10658;BME280;5377;43.276;26.930;2023-07-29T06:15:25;98870.88;;;21.58;100.00
10658;BME280;5377;43.276;26.930;2023-07-29T06:17:53;98873.28;;;21.65;100.00
10658;BME280;5377;43.276;26.930;2023-07-29T06:20:19;98866.19;;;21.64;100.00
10658;BME280;5377;43.276;26.930;2023-07-29T06:22:46;98868.38;;;21.67;100.00
10658;BME280;5377;43.276;26.930;2023-07-29T06:25:13;98864.78;;;21.71;98.61
10658;BME280;5377;43.276;26.930;2023-07-29T06:27:40;98861.91;;;21.97;97.84
10658;BME280;5377;43.276;26.930;2023-07-29T06:30:07;98863.81;;;21.96;96.81
10658;BME280;5377;43.276;26.930;2023-07-29T06:32:35;98859.22;;;21.92;95.73
10658;BME280;5377;43.276;26.930;2023-07-29T06:35:03;98856.41;;;22.07;96.43
10658;BME280;5377;43.276;26.930;2023-07-29T06:37:29;98860.59;;;22.28;94.51
10658;BME280;5377;43.276;26.930;2023-07-29T06:39:56;98855.09;;;22.33;95.13
10658;BME280;5377;43.276;26.930;2023-07-29T06:42:23;98855.47;;;22.51;94.09
10658;BME280;5377;43.276;26.930;2023-07-29T06:44:50;98859.53;;;22.53;93.67
10658;BME280;5377;43.276;26.930;2023-07-29T06:47:16;98857.03;;;22.62;92.43
10658;BME280;5377;43.276;26.930;2023-07-29T06:49:45;98849.59;;;22.67;90.05
10658;BME280;5377;43.276;26.930;2023-07-29T06:52:12;98836.13;;;22.76;88.85
10658;BME280;5377;43.276;26.930;2023-07-29T06:54:39;98854.41;;;23.05;86.65
10658;BME280;5377;43.276;26.930;2023-07-29T06:57:06;98848.72;;;23.25;85.80
10658;BME280;5377;43.276;26.930;2023-07-29T06:59:33;98844.59;;;23.46;84.42
10658;BME280;5377;43.276;26.930;2023-07-29T07:02:00;98847.16;;;23.61;81.70
10658;BME280;5377;43.276;26.930;2023-07-29T07:04:27;98825.13;;;23.72;79.71
10658;BME280;5377;43.276;26.930;2023-07-29T07:06:55;98833.69;;;23.84;79.98
10658;BME280;5377;43.276;26.930;2023-07-29T07:09:22;98828.72;;;24.05;79.30
10658;BME280;5377;43.276;26.930;2023-07-29T07:11:49;98845.75;;;24.02;75.45
10658;BME280;5377;43.276;26.930;2023-07-29T07:14:16;98846.44;;;24.45;75.31
10658;BME280;5377;43.276;26.930;2023-07-29T07:16:42;98838.72;;;24.47;73.51
10658;BME280;5377;43.276;26.930;2023-07-29T07:19:09;98831.28;;;24.66;74.81
10658;BME280;5377;43.276;26.930;2023-07-29T07:21:36;98836.13;;;24.83;72.81
10658;BME280;5377;43.276;26.930;2023-07-29T07:24:04;98839.91;;;24.73;71.53
10658;BME280;5377;43.276;26.930;2023-07-29T07:26:31;98837.88;;;24.79;71.66
10658;BME280;5377;43.276;26.930;2023-07-29T07:28:58;98840.09;;;24.91;71.76
10658;BME280;5377;43.276;26.930;2023-07-29T07:31:24;98822.59;;;25.05;69.73
10658;BME280;5377;43.276;26.930;2023-07-29T07:33:51;98827.75;;;25.07;70.47
10658;BME280;5377;43.276;26.930;2023-07-29T07:36:18;98831.59;;;25.19;68.94
10658;BME280;5377;43.276;26.930;2023-07-29T07:38:45;98832.19;;;25.44;67.88
10658;BME280;5377;43.276;26.930;2023-07-29T07:41:13;98833.78;;;25.59;67.36
10658;BME280;5377;43.276;26.930;2023-07-29T07:43:40;98822.81;;;25.72;65.15
10658;BME280;5377;43.276;26.930;2023-07-29T07:46:07;98823.63;;;25.95;62.88
10658;BME280;5377;43.276;26.930;2023-07-29T07:48:34;98825.44;;;26.00;63.02
10658;BME280;5377;43.276;26.930;2023-07-29T07:51:04;98824.94;;;25.98;62.01
10658;BME280;5377;43.276;26.930;2023-07-29T07:53:35;98823.78;;;26.35;62.64
10658;BME280;5377;43.276;26.930;2023-07-29T07:56:03;98800.06;;;26.39;61.71
10658;BME280;5377;43.276;26.930;2023-07-29T07:58:31;98815.84;;;26.64;58.89
10658;BME280;5377;43.276;26.930;2023-07-29T08:01:01;98815.81;;;26.56;58.60
10658;BME280;5377;43.276;26.930;2023-07-29T08:03:28;98814.34;;;26.81;58.40
10658;BME280;5377;43.276;26.930;2023-07-29T08:05:55;98815.47;;;26.88;56.62
10658;BME280;5377;43.276;26.930;2023-07-29T08:08:21;98811.19;;;27.04;52.67
10658;BME280;5377;43.276;26.930;2023-07-29T08:10:48;98797.00;;;27.11;51.88
10658;BME280;5377;43.276;26.930;2023-07-29T08:13:15;98790.25;;;27.34;50.88
10658;BME280;5377;43.276;26.930;2023-07-29T08:15:46;98795.47;;;27.62;49.47
10658;BME280;5377;43.276;26.930;2023-07-29T08:18:12;98779.94;;;28.01;49.62
10658;BME280;5377;43.276;26.930;2023-07-29T08:20:39;98735.41;;;27.90;46.21
10658;BME280;5377;43.276;26.930;2023-07-29T08:23:06;98776.28;;;28.43;43.47
10658;BME280;5377;43.276;26.930;2023-07-29T08:25:33;98770.47;;;28.92;41.87
10658;BME280;5377;43.276;26.930;2023-07-29T08:28:00;98763.34;;;29.83;41.96
10658;BME280;5377;43.276;26.930;2023-07-29T08:30:26;98761.91;;;30.88;37.23
10658;BME280;5377;43.276;26.930;2023-07-29T08:32:54;98756.81;;;31.79;34.55
10658;BME280;5377;43.276;26.930;2023-07-29T08:35:21;98755.38;;;32.56;32.54
10658;BME280;5377;43.276;26.930;2023-07-29T08:37:48;98744.25;;;33.35;32.18
10658;BME280;5377;43.276;26.930;2023-07-29T08:40:15;98744.88;;;34.25;30.48
10658;BME280;5377;43.276;26.930;2023-07-29T08:42:45;98740.31;;;34.82;30.17
10658;BME280;5377;43.276;26.930;2023-07-29T08:45:16;98731.03;;;35.24;28.55
10658;BME280;5377;43.276;26.930;2023-07-29T08:47:43;98748.31;;;35.97;26.68
10658;BME280;5377;43.276;26.930;2023-07-29T08:50:12;98727.66;;;36.38;25.25
10658;BME280;5377;43.276;26.930;2023-07-29T08:52:40;98731.53;;;36.74;25.20
10658;BME280;5377;43.276;26.930;2023-07-29T08:55:08;98744.22;;;37.12;24.43
10658;BME280;5377;43.276;26.930;2023-07-29T08:57:35;98729.19;;;37.31;24.97
10658;BME280;5377;43.276;26.930;2023-07-29T09:00:04;98735.78;;;37.74;24.61
10658;BME280;5377;43.276;26.930;2023-07-29T09:02:31;98729.59;;;37.37;23.65
10658;BME280;5377;43.276;26.930;2023-07-29T09:04:58;98734.56;;;37.03;24.16
10658;BME280;5377;43.276;26.930;2023-07-29T09:07:26;98719.47;;;37.84;24.27
10658;BME280;5377;43.276;26.930;2023-07-29T09:09:54;98722.91;;;37.49;23.55
10658;BME280;5377;43.276;26.930;2023-07-29T09:12:21;98719.88;;;37.93;24.13
10658;BME280;5377;43.276;26.930;2023-07-29T09:14:51;98706.41;;;38.30;22.10
10658;BME280;5377;43.276;26.930;2023-07-29T09:17:19;98715.59;;;38.56;22.59
10658;BME280;5377;43.276;26.930;2023-07-29T09:19:47;98708.78;;;38.28;23.06
10658;BME280;5377;43.276;26.930;2023-07-29T09:22:18;98700.66;;;37.73;23.79
10658;BME280;5377;43.276;26.930;2023-07-29T09:24:47;98715.91;;;38.04;23.43
10658;BME280;5377;43.276;26.930;2023-07-29T09:27:23;98705.50;;;37.91;23.33
10658;BME280;5377;43.276;26.930;2023-07-29T09:29:50;98696.41;;;38.22;23.13
10658;BME280;5377;43.276;26.930;2023-07-29T09:32:18;98705.13;;;38.06;22.90
10658;BME280;5377;43.276;26.930;2023-07-29T09:34:45;98709.91;;;38.02;23.27
10658;BME280;5377;43.276;26.930;2023-07-29T09:37:16;98698.03;;;36.71;23.74
10658;BME280;5377;43.276;26.930;2023-07-29T09:39:44;98706.75;;;37.17;23.24
10658;BME280;5377;43.276;26.930;2023-07-29T09:42:17;98681.91;;;37.05;23.93
10658;BME280;5377;43.276;26.930;2023-07-29T09:44:43;98728.91;;;36.92;23.43
10658;BME280;5377;43.276;26.930;2023-07-29T09:47:19;98704.25;;;37.01;24.49
10658;BME280;5377;43.276;26.930;2023-07-29T09:49:45;98701.00;;;37.61;23.93
10658;BME280;5377;43.276;26.930;2023-07-29T09:52:14;98704.25;;;37.77;24.73
10658;BME280;5377;43.276;26.930;2023-07-29T09:54:42;98694.00;;;37.23;23.12
10658;BME280;5377;43.276;26.930;2023-07-29T09:57:10;98696.19;;;37.58;23.07
10658;BME280;5377;43.276;26.930;2023-07-29T09:59:38;98693.31;;;37.44;23.30
10658;BME280;5377;43.276;26.930;2023-07-29T10:02:13;98696.28;;;37.07;23.14
10658;BME280;5377;43.276;26.930;2023-07-29T10:04:41;98685.59;;;37.20;24.68
10658;BME280;5377;43.276;26.930;2023-07-29T10:07:09;98704.41;;;35.56;25.23
10658;BME280;5377;43.276;26.930;2023-07-29T10:09:39;98704.41;;;35.86;25.36
10658;BME280;5377;43.276;26.930;2023-07-29T10:12:07;98695.53;;;36.14;23.97
10658;BME280;5377;43.276;26.930;2023-07-29T10:14:34;98665.72;;;36.22;24.40
10658;BME280;5377;43.276;26.930;2023-07-29T10:17:02;98686.59;;;36.83;24.29
10658;BME280;5377;43.276;26.930;2023-07-29T10:19:30;98686.56;;;36.79;25.01
10658;BME280;5377;43.276;26.930;2023-07-29T10:21:59;98668.50;;;37.25;24.02
10658;BME280;5377;43.276;26.930;2023-07-29T10:24:30;98674.13;;;37.32;23.47
10658;BME280;5377;43.276;26.930;2023-07-29T10:26:58;98682.22;;;36.38;23.57
10658;BME280;5377;43.276;26.930;2023-07-29T10:29:29;98649.16;;;35.99;24.31
10658;BME280;5377;43.276;26.930;2023-07-29T10:31:57;98634.75;;;35.90;24.33
10658;BME280;5377;43.276;26.930;2023-07-29T10:34:29;98662.25;;;36.32;24.29
10658;BME280;5377;43.276;26.930;2023-07-29T10:36:57;98639.53;;;36.34;24.81
10658;BME280;5377;43.276;26.930;2023-07-29T10:39:24;98665.56;;;36.45;24.51
10658;BME280;5377;43.276;26.930;2023-07-29T10:41:55;98658.91;;;36.67;24.58
10658;BME280;5377;43.276;26.930;2023-07-29T10:44:47;98660.03;;;36.55;23.82
10658;BME280;5377;43.276;26.930;2023-07-29T10:47:15;98657.88;;;36.35;24.37
10658;BME280;5377;43.276;26.930;2023-07-29T10:49:44;98647.25;;;36.51;25.43
10658;BME280;5377;43.276;26.930;2023-07-29T10:52:13;98652.31;;;36.86;25.24
10658;BME280;5377;43.276;26.930;2023-07-29T10:54:44;98653.72;;;36.66;23.68
10658;BME280;5377;43.276;26.930;2023-07-29T10:57:15;98646.50;;;37.20;24.88
10658;BME280;5377;43.276;26.930;2023-07-29T10:59:53;98640.91;;;37.12;23.84
10658;BME280;5377;43.276;26.930;2023-07-29T11:02:21;98635.72;;;37.18;24.54
10658;BME280;5377;43.276;26.930;2023-07-29T11:04:51;98638.22;;;37.37;23.12
10658;BME280;5377;43.276;26.930;2023-07-29T11:07:19;98644.44;;;36.47;24.38
10658;BME280;5377;43.276;26.930;2023-07-29T11:10:06;98642.38;;;36.96;24.49
10658;BME280;5377;43.276;26.930;2023-07-29T11:12:41;98648.59;;;37.37;24.39
10658;BME280;5377;43.276;26.930;2023-07-29T11:15:14;98646.03;;;37.07;23.15
10658;BME280;5377;43.276;26.930;2023-07-29T11:17:42;98644.50;;;37.16;23.14
10658;BME280;5377;43.276;26.930;2023-07-29T11:20:11;98608.50;;;37.04;22.57
10658;BME280;5377;43.276;26.930;2023-07-29T11:22:39;98612.63;;;37.25;22.58
10658;BME280;5377;43.276;26.930;2023-07-29T11:25:10;98587.00;;;37.12;22.83
10658;BME280;5377;43.276;26.930;2023-07-29T11:27:37;98629.50;;;37.53;24.22
10658;BME280;5377;43.276;26.930;2023-07-29T11:30:06;98625.63;;;37.97;23.07
10658;BME280;5377;43.276;26.930;2023-07-29T11:32:34;98515.69;;;37.43;22.53
10658;BME280;5377;43.276;26.930;2023-07-29T11:35:05;98612.06;;;38.38;22.40
10658;BME280;5377;43.276;26.930;2023-07-29T11:37:34;98614.09;;;38.20;22.14
10658;BME280;5377;43.276;26.930;2023-07-29T11:40:01;98618.47;;;38.31;22.20
10658;BME280;5377;43.276;26.930;2023-07-29T11:42:30;98615.66;;;38.63;21.92
10658;BME280;5377;43.276;26.930;2023-07-29T11:44:58;98628.41;;;38.86;21.12
10658;BME280;5377;43.276;26.930;2023-07-29T11:47:25;98617.66;;;38.56;21.83
10658;BME280;5377;43.276;26.930;2023-07-29T11:49:52;98601.59;;;38.85;21.55
10658;BME280;5377;43.276;26.930;2023-07-29T11:52:19;98596.78;;;38.96;22.13
10658;BME280;5377;43.276;26.930;2023-07-29T11:54:48;98613.91;;;39.19;21.58
10658;BME280;5377;43.276;26.930;2023-07-29T11:57:16;98607.75;;;39.53;20.76
10658;BME280;5377;43.276;26.930;2023-07-29T11:59:43;98606.16;;;39.48;21.35
10658;BME280;5377;43.276;26.930;2023-07-29T12:02:12;98602.31;;;39.21;21.45
10658;BME280;5377;43.276;26.930;2023-07-29T12:04:40;98605.69;;;39.64;21.22
10658;BME280;5377;43.276;26.930;2023-07-29T12:07:07;98563.09;;;39.14;20.33
10658;BME280;5377;43.276;26.930;2023-07-29T12:09:35;98591.50;;;39.23;20.56
10658;BME280;5377;43.276;26.930;2023-07-29T12:12:04;98585.63;;;38.75;20.40
10658;BME280;5377;43.276;26.930;2023-07-29T12:14:31;98602.91;;;39.64;21.07
10658;BME280;5377;43.276;26.930;2023-07-29T12:17:00;98600.34;;;39.84;20.03
10658;BME280;5377;43.276;26.930;2023-07-29T12:19:32;98591.19;;;40.32;19.87
10658;BME280;5377;43.276;26.930;2023-07-29T12:21:59;98584.63;;;40.49;19.60
10658;BME280;5377;43.276;26.930;2023-07-29T12:24:27;98582.34;;;40.33;20.31
10658;BME280;5377;43.276;26.930;2023-07-29T12:26:55;98582.69;;;39.90;20.03
10658;BME280;5377;43.276;26.930;2023-07-29T12:29:23;98585.88;;;40.44;19.29
10658;BME280;5377;43.276;26.930;2023-07-29T12:31:58;98584.38;;;40.29;19.37
10658;BME280;5377;43.276;26.930;2023-07-29T12:34:26;98587.91;;;39.85;20.18
10658;BME280;5377;43.276;26.930;2023-07-29T12:36:54;98591.09;;;39.21;20.12
10658;BME280;5377;43.276;26.930;2023-07-29T12:39:22;98586.94;;;39.47;20.26
10658;BME280;5377;43.276;26.930;2023-07-29T12:41:51;98582.44;;;40.22;19.72
10658;BME280;5377;43.276;26.930;2023-07-29T12:44:18;98583.81;;;40.48;19.82
10658;BME280;5377;43.276;26.930;2023-07-29T12:46:46;98578.53;;;40.09;19.82
10658;BME280;5377;43.276;26.930;2023-07-29T12:49:13;98574.72;;;40.75;19.45
10658;BME280;5377;43.276;26.930;2023-07-29T12:51:40;98570.19;;;40.47;19.30
10658;BME280;5377;43.276;26.930;2023-07-29T12:54:07;98516.63;;;40.31;19.90
10658;BME280;5377;43.276;26.930;2023-07-29T12:56:34;98576.19;;;40.87;19.76
10658;BME280;5377;43.276;26.930;2023-07-29T12:59:01;98560.31;;;41.07;19.28